Sumas, WA (98295)

3:37 AM PDT on August 23, 2014 (GMT -0700)
Reese Hill Rd, Anderson Lake | Change Station
CLOSE
Current Station
Personal Weather Station
Location: Sumas, WA
Elevation: 535 ft
Nearby Weather Stations

Elev 535 ft 48.97 °N, 122.21 °W | Updated 9 minutes ago

Partly Cloudy
Partly Cloudy
54.5 °F
Feels Like 54.5 °F
N
0.0
Wind Variable Wind from SSE

Today
High -- | Low -- °F
--% Chance of Precip.
Yesterday
High -- | Low -- °F
Precip. -- in
6:12 AM 8:08 PM
Waning Crescent, 4% visible
Pressure 30.11 in
Visibility 1.2 miles
Clouds Few 300 ft
Dew Point 53 °F
Humidity 95%
Rainfall 0.00 in
Snow Depth 0 in
UV 0 out of 12
Pollen 2.80 out of 12
PM2.5 Good
Flu Activity Not available.
SPECI KBLI 231033Z AUTO 00000KT 1 1/4SM BR FEW003 13/11 A3011 RMK AO2 VIS 1/4V5

More Conditions Fewer Conditions

Pressure 30.11 in
Visibility 1.2 miles
Clouds Few 300 ft
Dew Point 53 °F
Humidity 95%
Rainfall 0.00 in
Snow Depth 0 in
UV 0 out of 12
Pollen 2.80 out of 12
PM2.5 Good
Flu Activity Not available.
SPECI KBLI 231033Z AUTO 00000KT 1 1/4SM BR FEW003 13/11 A3011 RMK AO2 VIS 1/4V5

More Conditions Fewer Conditions

10-Day Weather Forecast

Almanac

Astronomy

Aug. 23, 2014 Rise Set
Actual Time 6:12 AM PDT 8:08 PM PDT
Civil Twilight 5:38 AM PDT 8:42 PM PDT
Nautical Twilight 4:56 AM PDT 9:24 PM PDT
Astronomical Twilight 4:10 AM PDT 10:10 PM PDT
Moon 4:30 AM PDT 6:57 PM PDT
Length of Visible Light 15h 03m
Length of Day
13h 56m
Tomorrow will be 3m 23s shorter.
Waning Crescent, 4% of the Moon is Illuminated
Today
Waning Crescent
Aug 25
New
Sep 2
First Quarter
Sep 8
Full
Sep 15
Last Quarter

Today's Extremes

State Highs State Lows

Community

WunderPhotos

Upload Photos

1,746,396 photos uploaded!

WunderBlogs® & News

By Dr. Jeff Masters
Director of Meteorology, Weather Underground
By Kari Strenfel
Meteorologist, Weather Underground
By Christopher C. Burt
Weather Historian, Weather Underground
August 23, 2014
August 23, 2014
August 23, 2014

Nearby

Air Quality

  Air Quality AQ Index Pollutant
Yesterday Good
PM2.5
Current Good
PM2.5
Saturday Good
OZONE
Saturday Good
PM2.5
Sunday Good
OZONE
Sunday Good
PM2.5
Monday Good
OZONE
Monday Good
PM2.5
Tuesday Good
OZONE
Tuesday Good
PM2.5

Snow Depth

Station Depth Elevation
Mf Nooksack 0 in 4980 ft
Elbow Lake 0 in 3200 ft
Swamp Creek 0 in 4000 ft
Harts Pass 0 in 6500 ft
Rainy Pass 0 in 4780 ft

Earthquake Activity

City Distance Mag. Time & Date
No recent earthquake activity has been reported nearby.
Minimum magnitude displayed is 2.5.

Coastal Water Temperatures

Place Temperature
Port Townsend, WA 53.1 °F
Friday Harbor, WA 54.0 °F
Port Angeles, WA 54.0 °F

Nearby Weather Stations